Aviation Digital Data Service (ADDS)

Output produced by METARs form (1256 UTC 22 March 2019)
found at http://www.aviationweather.gov/metar/data/
 
Forecast for: VOCL (CALICUT , IN)
Text: TAF VOCL 221100Z 2212/2221 27010KT 5000 HZ FEW015 SCT090
Forecast period: 1200 to 1700 UTC 22 March 2019
Forecast type: FROM: standard forecast or significant change
Winds: from the W (270 degrees) at 12 MPH (10 knots; 5.1 m/s)
Visibility: 3 miles (5 km)
Ceiling: at least 12,000 feet AGL
Clouds: few clouds at 1500 feet AGL
scattered clouds at 9000 feet AGL
Weather: HZ  (haze)
Text: TEMPO 2212/2215 FEW025CB
Forecast period: 1200 to 1500 UTC 22 March 2019
Forecast type: TEMPORARY: The following changes expected for less than half the time period
Visibility: missing
Ceiling: at least 12,000 feet AGL
Clouds: few clouds at 2500 feet AGL
Weather: no significant weather forecast for this period
Text: BECMG 2217/2218 09005KT 4000 HZ
Forecast period: 1700 to 2100 UTC 22 March 2019
Forecast type: BECOMING: Conditions expected to become as follows by 1800 UTC 22 March 2019
Winds: from the E (90 degrees) at 6 MPH (5 knots; 2.6 m/s)
Visibility: 2.49 miles (4.01 km)
Ceiling: at least 12,000 feet AGL
Clouds: few clouds at 1500 feet AGL
scattered clouds at 9000 feet AGL
Weather: HZ  (haze)